sensor_id;sensor_type;location;lat;lon;timestamp;P1;durP1;ratioP1;P2;durP2;ratioP2
33826;SDS011;20128;45.582;5.298;2023-03-01T00:01:28;25.02;;;14.48;;
33826;SDS011;20128;45.582;5.298;2023-03-01T00:03:55;27.55;;;15.77;;
33826;SDS011;20128;45.582;5.298;2023-03-01T00:06:22;29.55;;;15.07;;
33826;SDS011;20128;45.582;5.298;2023-03-01T00:08:48;24.02;;;14.82;;
33826;SDS011;20128;45.582;5.298;2023-03-01T00:11:15;29.10;;;15.70;;
33826;SDS011;20128;45.582;5.298;2023-03-01T00:13:44;28.75;;;14.45;;
33826;SDS011;20128;45.582;5.298;2023-03-01T00:16:14;27.95;;;14.40;;
33826;SDS011;20128;45.582;5.298;2023-03-01T00:18:42;25.02;;;14.57;;
33826;SDS011;20128;45.582;5.298;2023-03-01T00:21:08;26.73;;;15.27;;
33826;SDS011;20128;45.582;5.298;2023-03-01T00:23:34;26.10;;;15.40;;
33826;SDS011;20128;45.582;5.298;2023-03-01T00:26:00;25.45;;;14.38;;
33826;SDS011;20128;45.582;5.298;2023-03-01T00:28:26;24.98;;;14.63;;
33826;SDS011;20128;45.582;5.298;2023-03-01T00:30:51;29.27;;;15.18;;
33826;SDS011;20128;45.582;5.298;2023-03-01T00:33:17;28.42;;;14.88;;
33826;SDS011;20128;45.582;5.298;2023-03-01T00:35:43;32.50;;;14.48;;
33826;SDS011;20128;45.582;5.298;2023-03-01T00:38:09;30.73;;;16.15;;
33826;SDS011;20128;45.582;5.298;2023-03-01T00:40:35;29.75;;;15.52;;
33826;SDS011;20128;45.582;5.298;2023-03-01T00:43:01;25.42;;;15.20;;
33826;SDS011;20128;45.582;5.298;2023-03-01T00:45:28;25.25;;;14.80;;
33826;SDS011;20128;45.582;5.298;2023-03-01T00:47:55;28.60;;;15.65;;
33826;SDS011;20128;45.582;5.298;2023-03-01T00:50:21;27.45;;;15.18;;
33826;SDS011;20128;45.582;5.298;2023-03-01T00:52:51;21.30;;;13.90;;
33826;SDS011;20128;45.582;5.298;2023-03-01T00:55:18;28.30;;;15.63;;
33826;SDS011;20128;45.582;5.298;2023-03-01T00:57:43;25.42;;;15.50;;
33826;SDS011;20128;45.582;5.298;2023-03-01T01:00:10;27.05;;;15.23;;
33826;SDS011;20128;45.582;5.298;2023-03-01T01:02:37;26.08;;;16.00;;
33826;SDS011;20128;45.582;5.298;2023-03-01T01:05:03;29.13;;;15.80;;
33826;SDS011;20128;45.582;5.298;2023-03-01T01:07:29;28.42;;;15.40;;
33826;SDS011;20128;45.582;5.298;2023-03-01T01:09:55;29.30;;;15.27;;
33826;SDS011;20128;45.582;5.298;2023-03-01T01:12:21;26.83;;;15.52;;
33826;SDS011;20128;45.582;5.298;2023-03-01T01:14:46;26.38;;;16.10;;
33826;SDS011;20128;45.582;5.298;2023-03-01T01:17:12;28.48;;;15.80;;
33826;SDS011;20128;45.582;5.298;2023-03-01T01:19:38;29.15;;;16.55;;
33826;SDS011;20128;45.582;5.298;2023-03-01T01:22:04;26.90;;;15.80;;
33826;SDS011;20128;45.582;5.298;2023-03-01T01:24:29;27.00;;;16.17;;
33826;SDS011;20128;45.582;5.298;2023-03-01T01:26:55;26.70;;;15.40;;
33826;SDS011;20128;45.582;5.298;2023-03-01T01:29:21;26.67;;;16.45;;
33826;SDS011;20128;45.582;5.298;2023-03-01T01:31:46;27.65;;;16.05;;
33826;SDS011;20128;45.582;5.298;2023-03-01T01:34:16;28.17;;;15.70;;
33826;SDS011;20128;45.582;5.298;2023-03-01T01:36:43;26.98;;;16.17;;
33826;SDS011;20128;45.582;5.298;2023-03-01T01:39:12;28.30;;;15.90;;
33826;SDS011;20128;45.582;5.298;2023-03-01T01:41:38;28.05;;;16.80;;
33826;SDS011;20128;45.582;5.298;2023-03-01T01:44:17;30.58;;;15.90;;
33826;SDS011;20128;45.582;5.298;2023-03-01T01:46:49;26.98;;;15.90;;
33826;SDS011;20128;45.582;5.298;2023-03-01T01:49:20;30.40;;;15.77;;
33826;SDS011;20128;45.582;5.298;2023-03-01T01:51:51;27.85;;;15.93;;
33826;SDS011;20128;45.582;5.298;2023-03-01T01:54:30;28.60;;;15.70;;
33826;SDS011;20128;45.582;5.298;2023-03-01T01:57:03;28.30;;;15.77;;
33826;SDS011;20128;45.582;5.298;2023-03-01T01:59:36;30.52;;;14.63;;
33826;SDS011;20128;45.582;5.298;2023-03-01T02:02:03;25.75;;;15.32;;
33826;SDS011;20128;45.582;5.298;2023-03-01T02:04:30;33.03;;;16.25;;
33826;SDS011;20128;45.582;5.298;2023-03-01T02:06:58;26.52;;;15.38;;
33826;SDS011;20128;45.582;5.298;2023-03-01T02:09:28;26.90;;;15.13;;
33826;SDS011;20128;45.582;5.298;2023-03-01T02:11:54;25.83;;;15.20;;
33826;SDS011;20128;45.582;5.298;2023-03-01T02:14:20;29.30;;;17.02;;
33826;SDS011;20128;45.582;5.298;2023-03-01T02:16:46;26.88;;;15.90;;
33826;SDS011;20128;45.582;5.298;2023-03-01T02:19:15;27.50;;;14.95;;
33826;SDS011;20128;45.582;5.298;2023-03-01T02:21:58;26.83;;;14.88;;
33826;SDS011;20128;45.582;5.298;2023-03-01T02:24:47;27.05;;;15.30;;
33826;SDS011;20128;45.582;5.298;2023-03-01T02:27:18;28.85;;;16.33;;
33826;SDS011;20128;45.582;5.298;2023-03-01T02:29:49;25.17;;;15.32;;
33826;SDS011;20128;45.582;5.298;2023-03-01T02:32:15;27.38;;;14.88;;
33826;SDS011;20128;45.582;5.298;2023-03-01T02:34:49;26.38;;;12.57;;
33826;SDS011;20128;45.582;5.298;2023-03-01T02:37:17;25.48;;;15.52;;
33826;SDS011;20128;45.582;5.298;2023-03-01T02:39:50;27.27;;;16.08;;
33826;SDS011;20128;45.582;5.298;2023-03-01T02:42:23;26.83;;;15.20;;
33826;SDS011;20128;45.582;5.298;2023-03-01T02:44:55;28.47;;;15.57;;
33826;SDS011;20128;45.582;5.298;2023-03-01T02:47:21;28.67;;;15.88;;
33826;SDS011;20128;45.582;5.298;2023-03-01T02:49:46;27.25;;;16.13;;
33826;SDS011;20128;45.582;5.298;2023-03-01T02:52:30;31.75;;;15.98;;
33826;SDS011;20128;45.582;5.298;2023-03-01T02:57:31;30.13;;;16.60;;
33826;SDS011;20128;45.582;5.298;2023-03-01T02:59:59;29.45;;;15.00;;
33826;SDS011;20128;45.582;5.298;2023-03-01T03:02:32;27.58;;;15.35;;
33826;SDS011;20128;45.582;5.298;2023-03-01T03:05:13;24.80;;;14.88;;
33826;SDS011;20128;45.582;5.298;2023-03-01T03:07:40;31.15;;;15.73;;
33826;SDS011;20128;45.582;5.298;2023-03-01T03:10:09;27.50;;;15.52;;
33826;SDS011;20128;45.582;5.298;2023-03-01T03:12:39;28.80;;;15.35;;
33826;SDS011;20128;45.582;5.298;2023-03-01T03:15:05;27.23;;;16.30;;
33826;SDS011;20128;45.582;5.298;2023-03-01T03:17:37;29.63;;;15.85;;
33826;SDS011;20128;45.582;5.298;2023-03-01T03:20:05;27.75;;;16.27;;
33826;SDS011;20128;45.582;5.298;2023-03-01T03:22:36;26.90;;;14.07;;
33826;SDS011;20128;45.582;5.298;2023-03-01T03:25:03;29.70;;;16.08;;
33826;SDS011;20128;45.582;5.298;2023-03-01T03:27:28;27.40;;;15.43;;
33826;SDS011;20128;45.582;5.298;2023-03-01T03:29:56;26.25;;;16.55;;
33826;SDS011;20128;45.582;5.298;2023-03-01T03:32:22;28.48;;;16.13;;
33826;SDS011;20128;45.582;5.298;2023-03-01T03:34:48;26.77;;;15.18;;
33826;SDS011;20128;45.582;5.298;2023-03-01T03:37:14;33.72;;;16.45;;
33826;SDS011;20128;45.582;5.298;2023-03-01T03:39:59;32.53;;;16.35;;
33826;SDS011;20128;45.582;5.298;2023-03-01T03:42:25;32.13;;;17.65;;
33826;SDS011;20128;45.582;5.298;2023-03-01T03:44:51;29.23;;;16.45;;
33826;SDS011;20128;45.582;5.298;2023-03-01T03:47:16;28.70;;;15.98;;
33826;SDS011;20128;45.582;5.298;2023-03-01T03:49:42;29.00;;;15.75;;
33826;SDS011;20128;45.582;5.298;2023-03-01T03:52:07;28.33;;;15.57;;
33826;SDS011;20128;45.582;5.298;2023-03-01T03:54:38;29.45;;;16.42;;
33826;SDS011;20128;45.582;5.298;2023-03-01T03:57:05;31.45;;;16.30;;
33826;SDS011;20128;45.582;5.298;2023-03-01T03:59:31;30.10;;;17.25;;
33826;SDS011;20128;45.582;5.298;2023-03-01T04:01:57;27.80;;;15.90;;
33826;SDS011;20128;45.582;5.298;2023-03-01T04:04:23;33.35;;;17.90;;
33826;SDS011;20128;45.582;5.298;2023-03-01T04:06:48;33.83;;;15.90;;
33826;SDS011;20128;45.582;5.298;2023-03-01T04:09:14;28.67;;;16.55;;
33826;SDS011;20128;45.582;5.298;2023-03-01T04:11:40;33.63;;;17.98;;
33826;SDS011;20128;45.582;5.298;2023-03-01T04:14:05;41.42;;;17.00;;
33826;SDS011;20128;45.582;5.298;2023-03-01T04:16:31;30.38;;;17.40;;
33826;SDS011;20128;45.582;5.298;2023-03-01T04:18:56;28.50;;;15.95;;
33826;SDS011;20128;45.582;5.298;2023-03-01T04:21:24;29.65;;;17.00;;
33826;SDS011;20128;45.582;5.298;2023-03-01T04:23:50;29.95;;;16.83;;
33826;SDS011;20128;45.582;5.298;2023-03-01T04:26:17;36.45;;;19.33;;
33826;SDS011;20128;45.582;5.298;2023-03-01T04:28:44;28.60;;;15.95;;
33826;SDS011;20128;45.582;5.298;2023-03-01T04:31:15;32.50;;;16.90;;
33826;SDS011;20128;45.582;5.298;2023-03-01T04:36:11;31.20;;;16.63;;
33826;SDS011;20128;45.582;5.298;2023-03-01T04:38:38;30.65;;;16.13;;
33826;SDS011;20128;45.582;5.298;2023-03-01T04:41:05;33.10;;;17.83;;
33826;SDS011;20128;45.582;5.298;2023-03-01T04:43:32;32.60;;;16.58;;
33826;SDS011;20128;45.582;5.298;2023-03-01T04:46:09;34.17;;;18.13;;
33826;SDS011;20128;45.582;5.298;2023-03-01T04:48:38;32.33;;;17.30;;
33826;SDS011;20128;45.582;5.298;2023-03-01T04:51:06;30.13;;;16.20;;
33826;SDS011;20128;45.582;5.298;2023-03-01T04:53:33;32.55;;;17.10;;
33826;SDS011;20128;45.582;5.298;2023-03-01T04:56:04;32.65;;;17.33;;
33826;SDS011;20128;45.582;5.298;2023-03-01T04:58:31;32.42;;;17.13;;
33826;SDS011;20128;45.582;5.298;2023-03-01T05:00:56;32.17;;;17.90;;
33826;SDS011;20128;45.582;5.298;2023-03-01T05:03:22;33.30;;;18.98;;
33826;SDS011;20128;45.582;5.298;2023-03-01T05:05:49;32.55;;;19.17;;
33826;SDS011;20128;45.582;5.298;2023-03-01T05:08:16;32.55;;;17.80;;
33826;SDS011;20128;45.582;5.298;2023-03-01T05:10:46;37.22;;;18.10;;
33826;SDS011;20128;45.582;5.298;2023-03-01T05:13:14;31.48;;;17.58;;
33826;SDS011;20128;45.582;5.298;2023-03-01T05:15:49;34.20;;;17.88;;
33826;SDS011;20128;45.582;5.298;2023-03-01T05:18:20;32.67;;;16.88;;
33826;SDS011;20128;45.582;5.298;2023-03-01T05:20:46;30.42;;;17.20;;
33826;SDS011;20128;45.582;5.298;2023-03-01T05:23:12;33.35;;;18.35;;
33826;SDS011;20128;45.582;5.298;2023-03-01T05:25:38;34.58;;;17.52;;
33826;SDS011;20128;45.582;5.298;2023-03-01T05:28:05;32.33;;;18.45;;
33826;SDS011;20128;45.582;5.298;2023-03-01T05:30:35;39.55;;;19.33;;
33826;SDS011;20128;45.582;5.298;2023-03-01T05:33:00;33.10;;;18.35;;
33826;SDS011;20128;45.582;5.298;2023-03-01T05:35:26;32.80;;;18.05;;
33826;SDS011;20128;45.582;5.298;2023-03-01T05:37:52;33.53;;;19.13;;
33826;SDS011;20128;45.582;5.298;2023-03-01T05:40:20;33.25;;;18.70;;
33826;SDS011;20128;45.582;5.298;2023-03-01T05:42:48;36.85;;;18.88;;
33826;SDS011;20128;45.582;5.298;2023-03-01T05:45:15;32.13;;;18.65;;
33826;SDS011;20128;45.582;5.298;2023-03-01T05:47:42;35.40;;;17.13;;
33826;SDS011;20128;45.582;5.298;2023-03-01T05:50:15;31.65;;;16.92;;
33826;SDS011;20128;45.582;5.298;2023-03-01T05:52:48;35.67;;;18.10;;
33826;SDS011;20128;45.582;5.298;2023-03-01T05:55:16;35.60;;;18.25;;
33826;SDS011;20128;45.582;5.298;2023-03-01T05:57:42;36.00;;;18.45;;
33826;SDS011;20128;45.582;5.298;2023-03-01T06:00:09;34.65;;;18.65;;
33826;SDS011;20128;45.582;5.298;2023-03-01T06:02:35;39.00;;;19.55;;
33826;SDS011;20128;45.582;5.298;2023-03-01T06:05:01;38.20;;;20.33;;
33826;SDS011;20128;45.582;5.298;2023-03-01T06:07:27;36.83;;;19.58;;
33826;SDS011;20128;45.582;5.298;2023-03-01T06:09:53;32.50;;;17.90;;
33826;SDS011;20128;45.582;5.298;2023-03-01T06:12:18;35.00;;;19.30;;
33826;SDS011;20128;45.582;5.298;2023-03-01T06:14:44;37.97;;;19.40;;
33826;SDS011;20128;45.582;5.298;2023-03-01T06:17:11;33.45;;;18.20;;
33826;SDS011;20128;45.582;5.298;2023-03-01T06:19:37;36.60;;;19.52;;
33826;SDS011;20128;45.582;5.298;2023-03-01T06:22:02;33.50;;;19.67;;
33826;SDS011;20128;45.582;5.298;2023-03-01T06:24:28;35.70;;;19.60;;
33826;SDS011;20128;45.582;5.298;2023-03-01T06:26:54;34.00;;;18.73;;
33826;SDS011;20128;45.582;5.298;2023-03-01T06:29:20;38.95;;;18.95;;
33826;SDS011;20128;45.582;5.298;2023-03-01T06:31:47;41.30;;;20.92;;
33826;SDS011;20128;45.582;5.298;2023-03-01T06:34:14;34.83;;;19.17;;
33826;SDS011;20128;45.582;5.298;2023-03-01T06:36:39;36.85;;;18.40;;
33826;SDS011;20128;45.582;5.298;2023-03-01T06:39:05;36.97;;;19.45;;
33826;SDS011;20128;45.582;5.298;2023-03-01T06:41:31;38.67;;;19.13;;
33826;SDS011;20128;45.582;5.298;2023-03-01T06:43:58;35.92;;;18.95;;
33826;SDS011;20128;45.582;5.298;2023-03-01T06:46:24;41.85;;;19.80;;
33826;SDS011;20128;45.582;5.298;2023-03-01T06:48:50;40.35;;;20.80;;
33826;SDS011;20128;45.582;5.298;2023-03-01T06:51:15;35.53;;;20.23;;
33826;SDS011;20128;45.582;5.298;2023-03-01T06:53:41;44.92;;;19.70;;
33826;SDS011;20128;45.582;5.298;2023-03-01T06:56:07;41.65;;;21.33;;
33826;SDS011;20128;45.582;5.298;2023-03-01T06:58:32;38.38;;;19.70;;
33826;SDS011;20128;45.582;5.298;2023-03-01T07:00:58;36.75;;;21.55;;
33826;SDS011;20128;45.582;5.298;2023-03-01T07:03:24;38.78;;;20.17;;
33826;SDS011;20128;45.582;5.298;2023-03-01T07:05:50;43.90;;;22.10;;
33826;SDS011;20128;45.582;5.298;2023-03-01T07:08:18;40.28;;;21.73;;
33826;SDS011;20128;45.582;5.298;2023-03-01T07:10:44;38.40;;;19.88;;
33826;SDS011;20128;45.582;5.298;2023-03-01T07:13:10;35.45;;;19.42;;
33826;SDS011;20128;45.582;5.298;2023-03-01T07:15:36;36.40;;;19.13;;
33826;SDS011;20128;45.582;5.298;2023-03-01T07:18:01;49.78;;;22.83;;
33826;SDS011;20128;45.582;5.298;2023-03-01T07:20:27;39.35;;;20.88;;
33826;SDS011;20128;45.582;5.298;2023-03-01T07:22:53;43.22;;;20.45;;
33826;SDS011;20128;45.582;5.298;2023-03-01T07:25:21;42.47;;;21.83;;
33826;SDS011;20128;45.582;5.298;2023-03-01T07:27:50;38.72;;;20.02;;
33826;SDS011;20128;45.582;5.298;2023-03-01T07:30:17;40.30;;;20.33;;
33826;SDS011;20128;45.582;5.298;2023-03-01T07:32:43;43.25;;;20.98;;
33826;SDS011;20128;45.582;5.298;2023-03-01T07:35:10;40.80;;;20.38;;
33826;SDS011;20128;45.582;5.298;2023-03-01T07:37:36;41.30;;;19.77;;
33826;SDS011;20128;45.582;5.298;2023-03-01T07:40:01;45.72;;;20.92;;
33826;SDS011;20128;45.582;5.298;2023-03-01T07:42:27;43.97;;;21.10;;
33826;SDS011;20128;45.582;5.298;2023-03-01T07:44:53;38.92;;;21.23;;
33826;SDS011;20128;45.582;5.298;2023-03-01T07:47:18;40.40;;;20.63;;
33826;SDS011;20128;45.582;5.298;2023-03-01T07:49:44;39.40;;;21.77;;
33826;SDS011;20128;45.582;5.298;2023-03-01T07:52:10;44.33;;;22.30;;
33826;SDS011;20128;45.582;5.298;2023-03-01T07:54:37;38.53;;;21.75;;
33826;SDS011;20128;45.582;5.298;2023-03-01T07:57:03;38.50;;;21.17;;
33826;SDS011;20128;45.582;5.298;2023-03-01T07:59:29;44.58;;;22.27;;
33826;SDS011;20128;45.582;5.298;2023-03-01T08:01:57;41.28;;;22.17;;
33826;SDS011;20128;45.582;5.298;2023-03-01T08:04:23;41.05;;;21.20;;
33826;SDS011;20128;45.582;5.298;2023-03-01T08:06:50;41.58;;;21.63;;
33826;SDS011;20128;45.582;5.298;2023-03-01T08:09:16;36.45;;;18.83;;
33826;SDS011;20128;45.582;5.298;2023-03-01T08:11:41;39.40;;;22.08;;
33826;SDS011;20128;45.582;5.298;2023-03-01T08:14:07;39.63;;;20.38;;
33826;SDS011;20128;45.582;5.298;2023-03-01T08:16:33;42.75;;;21.17;;
33826;SDS011;20128;45.582;5.298;2023-03-01T08:19:04;39.95;;;21.88;;
33826;SDS011;20128;45.582;5.298;2023-03-01T08:21:30;40.30;;;21.83;;
33826;SDS011;20128;45.582;5.298;2023-03-01T08:23:57;50.35;;;22.95;;
33826;SDS011;20128;45.582;5.298;2023-03-01T08:26:22;46.25;;;23.02;;
33826;SDS011;20128;45.582;5.298;2023-03-01T08:28:48;41.28;;;21.60;;
33826;SDS011;20128;45.582;5.298;2023-03-01T08:31:25;42.13;;;21.35;;
33826;SDS011;20128;45.582;5.298;2023-03-01T08:33:54;43.25;;;21.23;;
33826;SDS011;20128;45.582;5.298;2023-03-01T08:36:25;44.78;;;23.67;;
33826;SDS011;20128;45.582;5.298;2023-03-01T08:38:53;44.35;;;22.67;;
33826;SDS011;20128;45.582;5.298;2023-03-01T08:41:19;44.28;;;21.05;;
33826;SDS011;20128;45.582;5.298;2023-03-01T08:43:45;45.13;;;19.95;;
33826;SDS011;20128;45.582;5.298;2023-03-01T08:46:10;54.50;;;24.67;;
33826;SDS011;20128;45.582;5.298;2023-03-01T08:48:37;46.83;;;24.42;;
33826;SDS011;20128;45.582;5.298;2023-03-01T08:51:09;42.83;;;22.77;;
33826;SDS011;20128;45.582;5.298;2023-03-01T08:53:38;48.88;;;23.92;;
33826;SDS011;20128;45.582;5.298;2023-03-01T08:56:04;46.95;;;24.33;;
33826;SDS011;20128;45.582;5.298;2023-03-01T08:58:30;43.28;;;24.50;;
33826;SDS011;20128;45.582;5.298;2023-03-01T09:00:56;48.95;;;24.27;;
33826;SDS011;20128;45.582;5.298;2023-03-01T09:03:22;42.00;;;23.65;;
33826;SDS011;20128;45.582;5.298;2023-03-01T09:05:48;53.03;;;24.45;;
33826;SDS011;20128;45.582;5.298;2023-03-01T09:08:15;43.67;;;24.23;;
33826;SDS011;20128;45.582;5.298;2023-03-01T09:10:44;45.63;;;24.50;;
33826;SDS011;20128;45.582;5.298;2023-03-01T09:13:10;46.40;;;24.10;;
33826;SDS011;20128;45.582;5.298;2023-03-01T09:15:37;47.45;;;23.42;;
33826;SDS011;20128;45.582;5.298;2023-03-01T09:18:03;41.65;;;23.02;;
33826;SDS011;20128;45.582;5.298;2023-03-01T09:20:29;49.03;;;23.63;;
33826;SDS011;20128;45.582;5.298;2023-03-01T09:22:56;51.08;;;24.67;;
33826;SDS011;20128;45.582;5.298;2023-03-01T09:25:22;42.55;;;23.80;;
33826;SDS011;20128;45.582;5.298;2023-03-01T09:27:50;43.35;;;22.00;;
33826;SDS011;20128;45.582;5.298;2023-03-01T09:30:19;50.25;;;24.30;;
33826;SDS011;20128;45.582;5.298;2023-03-01T09:32:45;41.80;;;23.75;;
33826;SDS011;20128;45.582;5.298;2023-03-01T09:35:11;43.50;;;22.48;;
33826;SDS011;20128;45.582;5.298;2023-03-01T09:37:37;48.78;;;24.48;;
33826;SDS011;20128;45.582;5.298;2023-03-01T09:40:04;47.42;;;24.10;;
33826;SDS011;20128;45.582;5.298;2023-03-01T09:42:32;44.67;;;23.95;;
33826;SDS011;20128;45.582;5.298;2023-03-01T09:45:04;50.78;;;24.23;;
33826;SDS011;20128;45.582;5.298;2023-03-01T09:47:35;43.03;;;22.05;;
33826;SDS011;20128;45.582;5.298;2023-03-01T09:52:48;54.45;;;24.95;;
33826;SDS011;20128;45.582;5.298;2023-03-01T09:55:17;45.25;;;24.33;;
33826;SDS011;20128;45.582;5.298;2023-03-01T09:58:16;44.20;;;24.27;;
33826;SDS011;20128;45.582;5.298;2023-03-01T10:00:50;43.80;;;23.77;;
33826;SDS011;20128;45.582;5.298;2023-03-01T10:03:32;45.63;;;24.58;;
33826;SDS011;20128;45.582;5.298;2023-03-01T10:06:22;48.80;;;24.50;;
33826;SDS011;20128;45.582;5.298;2023-03-01T10:11:22;45.47;;;25.58;;
33826;SDS011;20128;45.582;5.298;2023-03-01T10:16:56;46.45;;;24.52;;
33826;SDS011;20128;45.582;5.298;2023-03-01T10:19:36;47.58;;;25.83;;
33826;SDS011;20128;45.582;5.298;2023-03-01T10:22:13;45.90;;;24.30;;
33826;SDS011;20128;45.582;5.298;2023-03-01T10:24:42;49.50;;;26.15;;
33826;SDS011;20128;45.582;5.298;2023-03-01T10:27:13;47.45;;;24.48;;
33826;SDS011;20128;45.582;5.298;2023-03-01T10:29:54;46.42;;;24.27;;
33826;SDS011;20128;45.582;5.298;2023-03-01T10:32:37;50.80;;;23.95;;
33826;SDS011;20128;45.582;5.298;2023-03-01T10:38:05;45.30;;;25.55;;
33826;SDS011;20128;45.582;5.298;2023-03-01T10:40:51;49.60;;;24.73;;
33826;SDS011;20128;45.582;5.298;2023-03-01T10:43:19;45.70;;;25.42;;
33826;SDS011;20128;45.582;5.298;2023-03-01T10:45:46;50.80;;;24.92;;
33826;SDS011;20128;45.582;5.298;2023-03-01T10:50:47;51.72;;;25.55;;
33826;SDS011;20128;45.582;5.298;2023-03-01T10:53:27;49.88;;;26.20;;
33826;SDS011;20128;45.582;5.298;2023-03-01T10:56:00;50.75;;;26.52;;
33826;SDS011;20128;45.582;5.298;2023-03-01T10:58:29;46.03;;;24.55;;
33826;SDS011;20128;45.582;5.298;2023-03-01T11:01:05;53.30;;;26.48;;
33826;SDS011;20128;45.582;5.298;2023-03-01T11:06:36;48.22;;;27.17;;
33826;SDS011;20128;45.582;5.298;2023-03-01T11:09:17;48.92;;;23.80;;
33826;SDS011;20128;45.582;5.298;2023-03-01T11:14:23;46.15;;;25.50;;
33826;SDS011;20128;45.582;5.298;2023-03-01T11:16:57;42.63;;;24.67;;
33826;SDS011;20128;45.582;5.298;2023-03-01T11:19:28;43.53;;;24.85;;
33826;SDS011;20128;45.582;5.298;2023-03-01T11:24:45;47.35;;;25.27;;
33826;SDS011;20128;45.582;5.298;2023-03-01T11:32:47;49.75;;;25.65;;
33826;SDS011;20128;45.582;5.298;2023-03-01T11:35:30;45.13;;;24.30;;
33826;SDS011;20128;45.582;5.298;2023-03-01T11:40:57;44.80;;;25.70;;
33826;SDS011;20128;45.582;5.298;2023-03-01T11:58:49;51.78;;;26.88;;
33826;SDS011;20128;45.582;5.298;2023-03-01T12:12:58;52.65;;;27.20;;
33826;SDS011;20128;45.582;5.298;2023-03-01T12:21:02;54.47;;;26.85;;
33826;SDS011;20128;45.582;5.298;2023-03-01T12:28:55;55.28;;;28.85;;
33826;SDS011;20128;45.582;5.298;2023-03-01T12:34:38;56.05;;;29.35;;
33826;SDS011;20128;45.582;5.298;2023-03-01T12:37:36;52.00;;;27.80;;
33826;SDS011;20128;45.582;5.298;2023-03-01T12:40:21;46.10;;;25.08;;
33826;SDS011;20128;45.582;5.298;2023-03-01T12:51:39;52.13;;;28.52;;
33826;SDS011;20128;45.582;5.298;2023-03-01T12:54:14;52.92;;;29.67;;
33826;SDS011;20128;45.582;5.298;2023-03-01T12:56:44;45.42;;;25.73;;
33826;SDS011;20128;45.582;5.298;2023-03-01T12:59:23;50.53;;;26.77;;
33826;SDS011;20128;45.582;5.298;2023-03-01T13:05:06;46.00;;;27.02;;
33826;SDS011;20128;45.582;5.298;2023-03-01T13:07:40;50.67;;;28.13;;
33826;SDS011;20128;45.582;5.298;2023-03-01T13:10:29;46.53;;;20.25;;
33826;SDS011;20128;45.582;5.298;2023-03-01T13:15:33;52.67;;;28.35;;
33826;SDS011;20128;45.582;5.298;2023-03-01T13:18:02;54.60;;;28.67;;
33826;SDS011;20128;45.582;5.298;2023-03-01T13:23:08;59.08;;;30.33;;
33826;SDS011;20128;45.582;5.298;2023-03-01T13:54:54;56.25;;;28.58;;
33826;SDS011;20128;45.582;5.298;2023-03-01T13:57:22;51.40;;;26.88;;
33826;SDS011;20128;45.582;5.298;2023-03-01T13:59:57;48.45;;;25.05;;
33826;SDS011;20128;45.582;5.298;2023-03-01T14:02:23;50.72;;;28.65;;
33826;SDS011;20128;45.582;5.298;2023-03-01T14:04:58;51.20;;;28.67;;
33826;SDS011;20128;45.582;5.298;2023-03-01T14:07:25;51.50;;;29.05;;
33826;SDS011;20128;45.582;5.298;2023-03-01T14:09:56;53.90;;;27.88;;
33826;SDS011;20128;45.582;5.298;2023-03-01T14:14:59;48.53;;;26.55;;
33826;SDS011;20128;45.582;5.298;2023-03-01T14:20:32;55.65;;;28.48;;
33826;SDS011;20128;45.582;5.298;2023-03-01T14:23:08;59.63;;;29.08;;
33826;SDS011;20128;45.582;5.298;2023-03-01T14:25:37;53.63;;;28.52;;
33826;SDS011;20128;45.582;5.298;2023-03-01T14:28:14;56.15;;;29.00;;
33826;SDS011;20128;45.582;5.298;2023-03-01T14:30:42;51.17;;;28.35;;
33826;SDS011;20128;45.582;5.298;2023-03-01T14:33:20;50.72;;;28.23;;
33826;SDS011;20128;45.582;5.298;2023-03-01T14:35:54;53.33;;;28.02;;
33826;SDS011;20128;45.582;5.298;2023-03-01T14:38:28;52.55;;;28.02;;
33826;SDS011;20128;45.582;5.298;2023-03-01T14:41:08;52.75;;;28.65;;
33826;SDS011;20128;45.582;5.298;2023-03-01T14:43:37;53.28;;;29.75;;
33826;SDS011;20128;45.582;5.298;2023-03-01T14:46:06;53.22;;;29.23;;
33826;SDS011;20128;45.582;5.298;2023-03-01T14:48:41;50.60;;;27.75;;
33826;SDS011;20128;45.582;5.298;2023-03-01T14:51:06;56.72;;;30.50;;
33826;SDS011;20128;45.582;5.298;2023-03-01T14:53:32;53.08;;;28.85;;
33826;SDS011;20128;45.582;5.298;2023-03-01T14:56:01;51.65;;;29.55;;
33826;SDS011;20128;45.582;5.298;2023-03-01T14:58:27;56.92;;;31.35;;
33826;SDS011;20128;45.582;5.298;2023-03-01T15:00:57;52.55;;;29.52;;
33826;SDS011;20128;45.582;5.298;2023-03-01T15:06:05;54.70;;;30.27;;
33826;SDS011;20128;45.582;5.298;2023-03-01T15:08:32;49.30;;;27.20;;
33826;SDS011;20128;45.582;5.298;2023-03-01T15:11:44;53.20;;;28.63;;
33826;SDS011;20128;45.582;5.298;2023-03-01T15:13:48;58.70;;;30.50;;
33826;SDS011;20128;45.582;5.298;2023-03-01T15:16:17;49.15;;;29.08;;
33826;SDS011;20128;45.582;5.298;2023-03-01T15:18:50;50.22;;;28.88;;
33826;SDS011;20128;45.582;5.298;2023-03-01T15:21:21;52.88;;;28.35;;
33826;SDS011;20128;45.582;5.298;2023-03-01T15:23:55;54.22;;;29.70;;
33826;SDS011;20128;45.582;5.298;2023-03-01T15:26:28;50.33;;;28.80;;
33826;SDS011;20128;45.582;5.298;2023-03-01T15:29:01;55.22;;;29.00;;
33826;SDS011;20128;45.582;5.298;2023-03-01T15:31:29;50.47;;;28.42;;
33826;SDS011;20128;45.582;5.298;2023-03-01T15:34:10;55.85;;;29.10;;
33826;SDS011;20128;45.582;5.298;2023-03-01T15:36:58;52.88;;;29.70;;
33826;SDS011;20128;45.582;5.298;2023-03-01T15:41:58;59.08;;;30.20;;
33826;SDS011;20128;45.582;5.298;2023-03-01T15:44:30;53.28;;;29.02;;
33826;SDS011;20128;45.582;5.298;2023-03-01T15:47:21;54.00;;;28.98;;
33826;SDS011;20128;45.582;5.298;2023-03-01T15:49:52;47.97;;;26.90;;
33826;SDS011;20128;45.582;5.298;2023-03-01T15:52:32;54.08;;;28.85;;
33826;SDS011;20128;45.582;5.298;2023-03-01T15:55:05;47.90;;;28.33;;
33826;SDS011;20128;45.582;5.298;2023-03-01T15:57:39;52.20;;;27.98;;
33826;SDS011;20128;45.582;5.298;2023-03-01T16:00:05;48.25;;;28.48;;
33826;SDS011;20128;45.582;5.298;2023-03-01T16:02:36;55.38;;;28.75;;
33826;SDS011;20128;45.582;5.298;2023-03-01T16:05:02;56.30;;;30.88;;
33826;SDS011;20128;45.582;5.298;2023-03-01T16:07:28;50.70;;;29.48;;
33826;SDS011;20128;45.582;5.298;2023-03-01T16:09:56;59.58;;;30.08;;
33826;SDS011;20128;45.582;5.298;2023-03-01T16:12:21;51.78;;;27.20;;
33826;SDS011;20128;45.582;5.298;2023-03-01T16:14:49;53.38;;;28.98;;
33826;SDS011;20128;45.582;5.298;2023-03-01T16:17:15;53.30;;;31.05;;
33826;SDS011;20128;45.582;5.298;2023-03-01T16:19:41;53.53;;;29.50;;
33826;SDS011;20128;45.582;5.298;2023-03-01T16:22:06;53.20;;;30.13;;
33826;SDS011;20128;45.582;5.298;2023-03-01T16:24:34;56.92;;;30.10;;
33826;SDS011;20128;45.582;5.298;2023-03-01T16:27:01;57.45;;;29.92;;
33826;SDS011;20128;45.582;5.298;2023-03-01T16:29:27;50.60;;;29.23;;
33826;SDS011;20128;45.582;5.298;2023-03-01T16:31:54;57.08;;;31.15;;
33826;SDS011;20128;45.582;5.298;2023-03-01T16:34:19;56.35;;;30.20;;
33826;SDS011;20128;45.582;5.298;2023-03-01T16:36:46;56.60;;;31.10;;
33826;SDS011;20128;45.582;5.298;2023-03-01T16:39:12;57.45;;;30.55;;
33826;SDS011;20128;45.582;5.298;2023-03-01T16:41:38;52.45;;;29.30;;
33826;SDS011;20128;45.582;5.298;2023-03-01T16:44:03;57.75;;;30.60;;
33826;SDS011;20128;45.582;5.298;2023-03-01T16:46:29;57.13;;;29.15;;